Home   Weather   Germany   Mettlach   Past weeks
Flag for Germany

Past Weather in Mettlach, Saarland, Germany — Yesterday and Last 2 Weeks

Currently: 63 °F. Passing clouds. (Weather station: Luxembourg Airport, Germany). See more current weather

Past Weather in Mettlach — Graph

°F

Mettlach Temperature Yesterday

Maximum temperature yesterday: 64 °F (at 4:50 pm)
Minimum temperature yesterday: 45 °F (at 6:20 am)
Average temperature yesterday: 54 °F

High & Low Weather Summary for the Past Weeks

 TemperatureHumidityPressure
High79 °F (Sep 8, 3:50 pm)100% (Sep 10, 2:50 am)30.42 "Hg (Sep 10, 2:50 am)
Low45 °F (Sep 22, 6:20 am)32% (Sep 8, 4:20 pm)29.89 "Hg (Sep 9, 2:50 am)
Average60 °F79%30.06 "Hg
* Reported Sep 8 11:20 am — Sep 23 11:20 am, Mettlach. Weather by CustomWeather, © 2021

Note: Actual official high and low records may vary slightly from our data, if they occured in-between our weather recording intervals... More about our weather records

Mettlach Weather History for the Previous 24 Hours

Scroll right to see more
 ConditionsComfort  
Time TempWeatherWind HumidityBarometerVisibility
11:20 am
Thu, Sep 23
61 °FPassing clouds.6 mph63%30.18 "HgN/A
10:50 am59 °FPassing clouds.6 mph68%30.18 "HgN/A
10:20 am57 °FSunny.7 mph72%30.18 "Hg10 mi
9:50 am55 °FSunny.7 mph77%30.18 "Hg10 mi
9:20 am55 °FSunny.7 mph77%30.21 "Hg10 mi
8:50 am52 °FPassing clouds.7 mph88%30.18 "HgN/A
8:20 am48 °FSunny.7 mph94%30.18 "Hg10 mi
7:50 am48 °FSunny.5 mph94%30.18 "Hg10 mi
7:20 am46 °FClear.1 mph100%30.18 "Hg10 mi
6:50 am48 °FPassing clouds.3 mph94%30.18 "HgN/A
6:20 am45 °FClear.3 mph93%30.18 "Hg10 mi
5:50 am48 °FClear.3 mph94%30.18 "Hg10 mi
5:20 am48 °FClear.3 mph94%30.18 "Hg10 mi
4:50 am50 °FCool.5 mph94%30.21 "HgN/A
4:20 am50 °FCool.6 mph94%30.21 "HgN/A
3:50 am50 °FCool.6 mph94%30.24 "HgN/A
3:20 am50 °FCool.5 mph94%30.24 "HgN/A
2:50 am50 °FCool.5 mph88%30.24 "HgN/A
2:20 am50 °FCool.3 mph94%30.27 "HgN/A
1:50 am52 °FClear.5 mph88%30.27 "Hg10 mi
1:20 am50 °FClear.6 mph88%30.27 "Hg10 mi
12:50 am54 °FClear.5 mph82%30.27 "Hg10 mi
12:20 am54 °FClear.6 mph77%30.27 "Hg10 mi
11:50 pm
Wed, Sep 22
54 °FClear.5 mph77%30.27 "Hg10 mi
11:20 pm54 °FClear.5 mph82%30.27 "Hg10 mi
10:50 pm55 °FPassing clouds.5 mph77%30.30 "HgN/A
10:20 pm54 °FClear.5 mph82%30.30 "Hg10 mi
9:50 pm55 °FClear.5 mph77%30.30 "Hg10 mi
9:20 pm57 °FClear.5 mph72%30.30 "Hg10 mi
8:50 pm55 °FPassing clouds.6 mph82%30.30 "HgN/A
8:20 pm55 °FPassing clouds.6 mph77%30.30 "HgN/A
7:50 pm57 °FClear.2 mph77%30.30 "Hg10 mi
7:20 pm59 °FSunny.5 mph72%30.30 "Hg10 mi
6:50 pm61 °FSunny.2 mph72%30.30 "Hg10 mi
6:20 pm63 °FSunny.1 mph64%30.30 "Hg10 mi
5:50 pm64 °FPassing clouds.3 mph56%30.30 "HgN/A
5:20 pm63 °FPassing clouds.5 mph59%30.30 "HgN/A
4:50 pm64 °FPassing clouds.6 mph56%30.33 "HgN/A
4:20 pm63 °FSunny.5 mph59%30.33 "Hg10 mi
3:50 pm63 °FPassing clouds.6 mph56%30.33 "HgN/A
3:20 pm63 °FPassing clouds.6 mph59%30.36 "HgN/A
2:50 pm63 °FSunny.5 mph59%30.36 "Hg10 mi
2:20 pm63 °FPassing clouds.6 mph56%30.36 "HgN/A
1:50 pm61 °FSunny.6 mph59%30.39 "Hg10 mi
1:20 pm61 °FPassing clouds.6 mph63%30.39 "HgN/A
12:50 pm61 °FSunny.7 mph63%30.39 "Hg10 mi
12:20 pm59 °FPassing clouds.6 mph63%30.39 "HgN/A
Weather by CustomWeather, © 2021

See weather overview